Hlavní strana
METAR-TAF:

METAR-TAF

Letiště :

Kristiansand, Norsko

zeměpisná šířka: 58-12N, zeměpisná délka: 008-05E, výška: 1 m

Aktuální stav počasí

Zpráva byla vytvořena před 38 minutami, v 10:50 UTC
Východní vítr 12 kt
Teplota 15°C
Vlhkost vzduchu 63%
Tlak 998 hPa
Viditelnost 10 km a více
Skoro jasno ve výšce 3300 ft
Oblačno až skoro zataženo ve výšce 10000 ft

METAR: ENCN 041050Z 10012KT 9999 FEW033 BKN100 15/08 Q0998

Čas: 13:28 (11:28 UTC)

Předpověď počasí

Zpráva byla vytvořena před 3 hodinami a 28 minutami, v 08:00 UTC
Předpověď platná od 04 v 09 UTC do 04 v 18 UTC
Východní vítr 12 kt
Viditelnost 10 km a více
Skoro jasno ve výšce 2000 ft
Oblačno až skoro zataženo ve výšce 7000 ft
Dočasný
od 04 v 12 UTC do 04 v 18 UTC
Východní vítr 15 kt s nárazy do 25 kt

TAF: ENCN 040800Z 0409/0418 10012KT 9999 FEW020 BKN070 TEMPO 0412/0418 10015G25KT

Stav a předpovědi počasí z více než 4 000 letišť (zprávy METAR a TAF).

Červené a žluté tečky na mapě představují dostupné meteorologické stanice.

Když kurzor umístíte na tečku, zobrazí se název stanice.

Pak kliknutím zobrazíte stav a předpověď počasí.

Chcete-li změnit mapu, kliknutím na zelené tlačítko se znaménkem +mapu přiblížíte, kliknutím na zelené tlačítko se znaménkem – mapu oddálíte a kliknutím na zelené šipky přejdete na sousední mapy.


METAR-TAF: